Aqualoyalty — A8ZC6 — position and weather

sailwx.info

Track history (hours):
 
Tides and Currents Weather Stations Pressure Air Temp Water Temp Dewpoint Dewpoint Depression Visibility Wind Speed Wind Dir Waves Ship Positions

Aqualoyalty

Last reported at 2014-Jul-22 16:33 UTC. Time now 2014-Jul-22 17:29 UTC.
Position N 37°15' W 123°08'.

Length 249 m; draft 8.5 m.

Type: Tanker. MMSI: 636015177.

Date/timePositionNaut miles runAvg speedWind from/ knotsBaromVisibWave heightAir tempDewpointWater temp
2014-Jul-22 16:33N 37°15' W 123°08'1010.0
2014-Jul-22 15:33N 37°25' W 123°08'9 9.2
2014-Jul-22 14:33N 37°34' W 123°04'1110.7
2014-Jul-22 13:33N 37°40' W 122°53'1010.3
2014-Jul-22 12:33N 37°46' W 122°42'1312.6
2014-Jul-22 11:33N 37°50' W 122°27'6 5.5
2014-Jul-22 10:32N 37°46' W 122°22'0 0.0
2014-Jul-22 09:32N 37°46' W 122°22'0 0.0
2014-Jul-22 08:32N 37°46' W 122°22'0 0.0
2014-Jul-22 07:32N 37°46' W 122°22'0 0.1
2014-Jul-22 06:32N 37°46' W 122°21'0 0.1
2014-Jul-22 05:32N 37°46' W 122°22'0 0.2
2014-Jul-22 04:32N 37°46' W 122°21'0 0.1
2014-Jul-22 03:32N 37°46' W 122°21'0 0.4
2014-Jul-22 02:33N 37°46' W 122°22'10 9.9
2014-Jul-22 01:33N 37°55' W 122°27'8 8.0
2014-Jul-22 00:33N 38°02' W 122°22'1110.9
2014-Jul-21 23:33N 38°02' W 122°08'0 0.0
2014-Jul-20 17:10N 38°02' W 122°07'1 0.9
2014-Jul-20 16:34N 38°02' W 122°08'7 7.1
2014-Jul-20 15:34N 38°04' W 122°17'1010.3
2014-Jul-20 14:34N 37°57' W 122°27'8 8.0
2014-Jul-20 13:34N 37°49' W 122°29'1211.8
2014-Jul-20 12:34N 37°44' W 122°42'9 9.4
2014-Jul-20 11:34N 37°38' W 122°52'1010.3
2014-Jul-20 10:33N 37°32' W 123°03'10 9.6
2014-Jul-20 09:33N 37°23' W 123°06'9 9.0
2014-Jul-20 08:33N 37°15' W 123°10'4 4.1
2014-Jul-20 07:34N 37°11' W 123°08'3 2.5
2014-Jul-20 06:33N 37°08' W 123°08'9 9.1
2014-Jul-20 05:34N 37°15' W 123°17'2 2.1
2014-Jul-20 04:33N 37°17' W 123°18'5 4.6
2014-Jul-20 03:34N 37°12' W 123°15'1110.7
2014-Jul-20 02:34N 37°02' W 123°11'1111.3
2014-Jul-20 01:34N 36°51' W 123°09'1211.7
2014-Jul-20 00:34N 36°40' W 123°08'1211.5
2014-Jul-19 23:33N 36°28' W 123°08'1111.2
2014-Jul-19 22:32N 36°17' W 123°03'1111.5
2014-Jul-19 21:33N 36°08' W 122°55'1211.6
2014-Jul-19 20:33N 35°58' W 122°48'1111.3
2014-Jul-19 19:33N 35°48' W 122°42'1111.1
2014-Jul-19 18:33N 35°38' W 122°36'1111.0
2014-Jul-19 17:33N 35°28' W 122°28'1111.3
2014-Jul-19 16:33N 35°19' W 122°21'1313.3
2014-Jul-19 15:33N 35°07' W 122°13'1211.4
2014-Jul-19 14:32N 34°57' W 122°06'1111.6
2014-Jul-19 13:33N 34°47' W 121°59'1111.2
2014-Jul-19 12:34N 34°38' W 121°51'1111.2
2014-Jul-19 11:33N 34°29' W 121°43'1110.5
2014-Jul-19 10:32N 34°19' W 121°39'1010.5
2014-Jul-19 09:33N 34°11' W 121°31'1111.2
2014-Jul-19 08:32N 34°04' W 121°20'7610.4
2014-Jul-19 01:14N 33°43' W 119°52'811.4
2014-Jul-19 00:32N 33°43' W 119°43'1111.2
2014-Jul-18 23:32N 33°43' W 119°29'5611.2
2014-Jul-18 18:31N 33°35' W 118°23'9 8.9
2014-Jul-18 17:33N 33°38' W 118°13'7 6.8
2014-Jul-18 16:32N 33°45' W 118°13'4 0.1
2014-Jul-17 08:12N 33°42' W 118°09'0 0.0
2014-Jul-17 07:21N 33°42' W 118°09'0 0.1
2014-Jul-17 06:30N 33°42' W 118°09'0 0.0
2014-Jul-17 05:18N 33°42' W 118°09'0 0.0
2014-Jul-17 04:21N 33°42' W 118°09'0 0.0
2014-Jul-17 03:30N 33°42' W 118°09'0 0.0
2014-Jul-17 02:33N 33°42' W 118°09'0 0.0
2014-Jul-17 01:27N 33°42' W 118°09'0 0.0
2014-Jul-17 00:21N 33°42' W 118°09'0 0.0
2014-Jul-16 23:27N 33°42' W 118°09'0 0.1
2014-Jul-16 22:33N 33°42' W 118°09'0 0.1
2014-Jul-16 21:33N 33°42' W 118°09'0 0.1
2014-Jul-16 20:33N 33°42' W 118°09'0 0.0
2014-Jul-16 17:27N 33°42' W 118°09'0 0.0
2014-Jul-16 16:21N 33°42' W 118°09'1 1.5
2014-Jul-16 15:33N 33°41' W 118°10'9 9.0
2014-Jul-16 14:33N 33°32' W 118°08'1111.2
2014-Jul-16 13:33N 33°21' W 118°04'1111.2
2014-Jul-16 12:34N 33°12' W 117°57'1111.2
2014-Jul-16 11:33N 33°01' W 117°54'1211.6
2014-Jul-16 10:33N 32°50' W 117°51'5 5.3
2014-Jul-16 09:33N 32°44' W 117°49'7 7.0
2014-Jul-16 08:34N 32°38' W 117°45'1111.0
2014-Jul-16 07:34N 32°27' W 117°45'1212.3
2014-Jul-16 06:33N 32°15' W 117°41'1212.1
2014-Jul-16 05:32N 32°03' W 117°37'2611.8
2014-Jul-16 03:22N 31°39' W 117°29'1111.3
2014-Jul-16 02:26N 31°28' W 117°28'  
Track history (hours):
 
Tides and Currents Weather Stations Pressure Air Temp Water Temp Dewpoint Dewpoint Depression Visibility Wind Speed Wind Dir Waves Ship Positions

Aqualoyalty

Last reported at 2014-Jul-22 16:33 UTC. Time now 2014-Jul-22 17:29 UTC.
Position N 37°15' W 123°08'.

Length 249 m; draft 8.5 m.

Type: Tanker. MMSI: 636015177.

Date/timePositionNaut miles runAvg speedWind from/ knotsBaromVisibWave heightAir tempDewpointWater temp
2014-Jul-22 16:33N 37°15' W 123°08'1010.0
2014-Jul-22 15:33N 37°25' W 123°08'9 9.2
2014-Jul-22 14:33N 37°34' W 123°04'1110.7
2014-Jul-22 13:33N 37°40' W 122°53'1010.3
2014-Jul-22 12:33N 37°46' W 122°42'1312.6
2014-Jul-22 11:33N 37°50' W 122°27'6 5.5
2014-Jul-22 10:32N 37°46' W 122°22'0 0.0
2014-Jul-22 09:32N 37°46' W 122°22'0 0.0
2014-Jul-22 08:32N 37°46' W 122°22'0 0.0
2014-Jul-22 07:32N 37°46' W 122°22'0 0.1
2014-Jul-22 06:32N 37°46' W 122°21'0 0.1
2014-Jul-22 05:32N 37°46' W 122°22'0 0.2
2014-Jul-22 04:32N 37°46' W 122°21'0 0.1
2014-Jul-22 03:32N 37°46' W 122°21'0 0.4
2014-Jul-22 02:33N 37°46' W 122°22'10 9.9
2014-Jul-22 01:33N 37°55' W 122°27'8 8.0
2014-Jul-22 00:33N 38°02' W 122°22'1110.9
2014-Jul-21 23:33N 38°02' W 122°08'0 0.0
2014-Jul-20 17:10N 38°02' W 122°07'1 0.9
2014-Jul-20 16:34N 38°02' W 122°08'7 7.1
2014-Jul-20 15:34N 38°04' W 122°17'1010.3
2014-Jul-20 14:34N 37°57' W 122°27'8 8.0
2014-Jul-20 13:34N 37°49' W 122°29'1211.8
2014-Jul-20 12:34N 37°44' W 122°42'9 9.4
2014-Jul-20 11:34N 37°38' W 122°52'1010.3
2014-Jul-20 10:33N 37°32' W 123°03'10 9.6
2014-Jul-20 09:33N 37°23' W 123°06'9 9.0
2014-Jul-20 08:33N 37°15' W 123°10'4 4.1
2014-Jul-20 07:34N 37°11' W 123°08'3 2.5
2014-Jul-20 06:33N 37°08' W 123°08'9 9.1
2014-Jul-20 05:34N 37°15' W 123°17'2 2.1
2014-Jul-20 04:33N 37°17' W 123°18'5 4.6
2014-Jul-20 03:34N 37°12' W 123°15'1110.7
2014-Jul-20 02:34N 37°02' W 123°11'1111.3
2014-Jul-20 01:34N 36°51' W 123°09'1211.7
2014-Jul-20 00:34N 36°40' W 123°08'1211.5
2014-Jul-19 23:33N 36°28' W 123°08'1111.2
2014-Jul-19 22:32N 36°17' W 123°03'1111.5
2014-Jul-19 21:33N 36°08' W 122°55'1211.6
2014-Jul-19 20:33N 35°58' W 122°48'1111.3
2014-Jul-19 19:33N 35°48' W 122°42'1111.1
2014-Jul-19 18:33N 35°38' W 122°36'1111.0
2014-Jul-19 17:33N 35°28' W 122°28'1111.3
2014-Jul-19 16:33N 35°19' W 122°21'1313.3
2014-Jul-19 15:33N 35°07' W 122°13'1211.4
2014-Jul-19 14:32N 34°57' W 122°06'1111.6
2014-Jul-19 13:33N 34°47' W 121°59'1111.2
2014-Jul-19 12:34N 34°38' W 121°51'1111.2
2014-Jul-19 11:33N 34°29' W 121°43'1110.5
2014-Jul-19 10:32N 34°19' W 121°39'1010.5
2014-Jul-19 09:33N 34°11' W 121°31'1111.2
2014-Jul-19 08:32N 34°04' W 121°20'7610.4
2014-Jul-19 01:14N 33°43' W 119°52'811.4
2014-Jul-19 00:32N 33°43' W 119°43'1111.2
2014-Jul-18 23:32N 33°43' W 119°29'5611.2
2014-Jul-18 18:31N 33°35' W 118°23'9 8.9
2014-Jul-18 17:33N 33°38' W 118°13'7 6.8
2014-Jul-18 16:32N 33°45' W 118°13'4 0.1
2014-Jul-17 08:12N 33°42' W 118°09'0 0.0
2014-Jul-17 07:21N 33°42' W 118°09'0 0.1
2014-Jul-17 06:30N 33°42' W 118°09'0 0.0
2014-Jul-17 05:18N 33°42' W 118°09'0 0.0
2014-Jul-17 04:21N 33°42' W 118°09'0 0.0
2014-Jul-17 03:30N 33°42' W 118°09'0 0.0
2014-Jul-17 02:33N 33°42' W 118°09'0 0.0
2014-Jul-17 01:27N 33°42' W 118°09'0 0.0
2014-Jul-17 00:21N 33°42' W 118°09'0 0.0
2014-Jul-16 23:27N 33°42' W 118°09'0 0.1
2014-Jul-16 22:33N 33°42' W 118°09'0 0.1
2014-Jul-16 21:33N 33°42' W 118°09'0 0.1
2014-Jul-16 20:33N 33°42' W 118°09'0 0.0
2014-Jul-16 17:27N 33°42' W 118°09'0 0.0
2014-Jul-16 16:21N 33°42' W 118°09'1 1.5
2014-Jul-16 15:33N 33°41' W 118°10'9 9.0
2014-Jul-16 14:33N 33°32' W 118°08'1111.2
2014-Jul-16 13:33N 33°21' W 118°04'1111.2
2014-Jul-16 12:34N 33°12' W 117°57'1111.2
2014-Jul-16 11:33N 33°01' W 117°54'1211.6
2014-Jul-16 10:33N 32°50' W 117°51'5 5.3
2014-Jul-16 09:33N 32°44' W 117°49'7 7.0
2014-Jul-16 08:34N 32°38' W 117°45'1111.0
2014-Jul-16 07:34N 32°27' W 117°45'1212.3
2014-Jul-16 06:33N 32°15' W 117°41'1212.1
2014-Jul-16 05:32N 32°03' W 117°37'2611.8
2014-Jul-16 03:22N 31°39' W 117°29'1111.3
2014-Jul-16 02:26N 31°28' W 117°28'  

Dump ship's entire track history